Terminal Aerodrome Forecast
Issued by NWS

Home | Current Version | Previous Version | Text Only | Print | Product List | Glossary On
Versions: 1 2 3 4 5 6 7 8 9 10 11 12 13
000
FTUS42 TJSJ 281740
TAFJPS
TAF
TJPS 281740Z 2818/2918 13010KT P6SM VCSH SCT025 SCT050
     FM282300 05005KT P6SM FEW030 SCT060
     FM291400 13010KT P6SM VCSH SCT025 SCT050 BKN080
      AMD NOT SKED TIL 290300=

USA.gov is the U.S. government's official web portal to all federal, state and local government web resources and services.